createdAt,value
2022-07-25T00:02:03.061Z,5.05
2022-07-25T00:04:31.263Z,5.15
2022-07-25T00:06:59.574Z,5.00
2022-07-25T00:09:28.660Z,5.60
2022-07-25T00:11:56.478Z,5.22
2022-07-25T00:14:24.245Z,5.88
2022-07-25T00:16:52.221Z,5.47
2022-07-25T00:19:20.105Z,5.22
2022-07-25T00:21:47.859Z,5.45
2022-07-25T00:24:15.628Z,4.75
2022-07-25T00:26:44.807Z,5.85
2022-07-25T00:29:12.593Z,5.20
2022-07-25T00:31:40.367Z,5.68
2022-07-25T00:34:08.696Z,5.75
2022-07-25T00:36:36.749Z,5.63
2022-07-25T00:39:04.949Z,5.50
2022-07-25T00:41:32.804Z,5.45
2022-07-25T00:44:01.942Z,4.85
2022-07-25T00:46:29.846Z,5.70
2022-07-25T00:48:59.157Z,4.65
2022-07-25T00:51:27.177Z,5.60
2022-07-25T00:53:55.639Z,5.07
2022-07-25T00:56:23.734Z,5.68
2022-07-25T00:58:51.918Z,5.45
2022-07-25T01:01:21.041Z,5.53
2022-07-25T01:03:48.902Z,5.20
2022-07-25T01:06:16.717Z,5.72
2022-07-25T01:08:44.520Z,5.15
2022-07-25T01:11:12.818Z,5.10
2022-07-25T01:13:40.761Z,6.10
2022-07-25T01:16:08.971Z,5.85
2022-07-25T01:18:38.405Z,6.05
2022-07-25T01:21:08.234Z,5.47
2022-07-25T01:23:35.974Z,5.65
2022-07-25T01:26:03.946Z,5.10
2022-07-25T01:28:31.707Z,5.30
2022-07-25T01:30:59.476Z,5.18
2022-07-25T01:33:27.235Z,5.38
2022-07-25T01:35:55.000Z,4.93
2022-07-25T01:38:24.057Z,5.32
2022-07-25T01:40:51.926Z,5.45
2022-07-25T01:43:19.725Z,5.10
2022-07-25T01:45:47.592Z,5.13
2022-07-25T01:48:15.363Z,5.65
2022-07-25T01:50:44.624Z,5.50
2022-07-25T01:53:12.599Z,5.55
2022-07-25T01:55:41.628Z,5.57
2022-07-25T01:58:10.642Z,5.38
2022-07-25T02:00:38.721Z,5.55
2022-07-25T02:03:23.970Z,5.55
2022-07-25T02:05:51.779Z,5.60
2022-07-25T02:08:19.451Z,5.60
2022-07-25T02:10:48.754Z,6.07
2022-07-25T02:13:16.876Z,5.40
2022-07-25T02:15:44.623Z,5.82
2022-07-25T02:18:12.562Z,5.53
2022-07-25T02:20:40.293Z,5.82
2022-07-25T02:23:08.142Z,5.93
2022-07-25T02:25:37.636Z,5.63
2022-07-25T02:28:07.042Z,5.43
2022-07-25T02:30:36.509Z,5.43
2022-07-25T02:33:04.314Z,5.72
2022-07-25T02:35:32.018Z,6.07
2022-07-25T02:37:59.785Z,5.72
2022-07-25T02:40:27.894Z,5.20
2022-07-25T02:42:55.708Z,5.80
2022-07-25T02:45:26.796Z,5.13
2022-07-25T02:47:57.381Z,5.22
2022-07-25T02:50:25.061Z,6.18
2022-07-25T02:52:52.783Z,6.10
2022-07-25T02:55:20.595Z,5.65
2022-07-25T02:57:48.287Z,5.60
2022-07-25T03:00:17.485Z,6.13
2022-07-25T03:02:46.894Z,6.00
2022-07-25T03:05:16.430Z,6.20
2022-07-25T03:07:45.030Z,6.80
2022-07-25T03:10:22.284Z,6.30
2022-07-25T03:12:49.973Z,6.38
2022-07-25T03:18:00.697Z,6.30
2022-07-25T03:20:28.462Z,6.13
2022-07-25T03:22:56.222Z,6.28
2022-07-25T03:25:23.971Z,6.20
2022-07-25T03:27:51.970Z,6.32
2022-07-25T03:30:19.663Z,7.18
2022-07-25T03:32:47.747Z,6.40
2022-07-25T03:35:26.452Z,6.57
2022-07-25T03:37:54.442Z,5.78
2022-07-25T03:40:31.852Z,6.35
2022-07-25T03:42:59.659Z,6.47
2022-07-25T03:45:27.495Z,6.00
2022-07-25T03:47:55.291Z,6.30
2022-07-25T03:50:27.204Z,6.85
2022-07-25T03:52:57.962Z,7.20
2022-07-25T03:55:25.718Z,6.13
2022-07-25T03:57:53.465Z,6.38
2022-07-25T04:00:21.442Z,6.65
2022-07-25T04:02:49.301Z,6.88
2022-07-25T04:05:17.107Z,6.47
2022-07-25T04:07:46.217Z,6.53
2022-07-25T04:10:23.195Z,6.88
2022-07-25T04:12:50.978Z,6.45
2022-07-25T04:15:18.758Z,6.45
2022-07-25T04:17:46.529Z,7.03
2022-07-25T04:20:14.366Z,7.35
2022-07-25T04:22:46.298Z,6.82
2022-07-25T04:25:15.976Z,6.72
2022-07-25T04:27:44.360Z,6.53
2022-07-25T04:30:13.228Z,6.97
2022-07-25T04:32:52.114Z,7.00
2022-07-25T04:35:19.783Z,7.18
2022-07-25T04:37:47.479Z,6.72
2022-07-25T04:40:16.606Z,7.32
2022-07-25T04:42:44.419Z,7.03
2022-07-25T04:45:12.756Z,6.90
2022-07-25T04:47:40.628Z,7.10
2022-07-25T04:50:21.774Z,7.53
2022-07-25T04:52:52.454Z,7.05
2022-07-25T04:55:21.710Z,7.25
2022-07-25T04:57:49.566Z,7.65
2022-07-25T05:00:17.885Z,7.38
2022-07-25T05:02:45.691Z,6.88
2022-07-25T05:11:50.492Z,6.93
2022-07-25T05:14:22.232Z,7.32
2022-07-25T05:16:50.309Z,6.70
2022-07-25T05:19:24.164Z,6.78
2022-07-25T05:21:51.872Z,6.75
2022-07-25T05:24:19.754Z,7.28
2022-07-25T05:26:48.802Z,7.13
2022-07-25T05:29:16.835Z,7.70
2022-07-25T05:31:44.575Z,7.53
2022-07-25T05:34:12.574Z,7.65
2022-07-25T05:36:43.042Z,9.32
2022-07-25T05:39:14.941Z,8.77
2022-07-25T05:41:42.879Z,9.45
2022-07-25T05:44:12.001Z,9.23
2022-07-25T05:46:39.773Z,8.90
2022-07-25T05:49:07.643Z,9.02
2022-07-25T05:51:35.427Z,9.32
2022-07-25T05:54:03.378Z,10.50
2022-07-25T05:56:31.408Z,10.00
2022-07-25T05:58:59.260Z,10.13
2022-07-25T06:01:28.302Z,9.73
2022-07-25T06:03:57.474Z,8.90
2022-07-25T06:06:25.452Z,8.75
2022-07-25T06:08:53.142Z,9.25
2022-07-25T06:11:22.429Z,9.32
2022-07-25T06:13:50.915Z,10.00
2022-07-25T06:16:19.345Z,9.85
2022-07-25T06:18:48.559Z,9.48
2022-07-25T06:21:16.322Z,9.65
2022-07-25T06:23:44.100Z,10.07
2022-07-25T06:26:12.312Z,10.55
2022-07-25T06:28:40.118Z,10.13
2022-07-25T06:31:07.863Z,11.00
2022-07-25T06:33:35.700Z,11.07
2022-07-25T06:36:05.716Z,10.35
2022-07-25T06:38:33.743Z,9.85
2022-07-25T06:41:01.476Z,11.35
2022-07-25T06:43:29.236Z,9.52
2022-07-25T06:45:57.010Z,9.15
2022-07-25T06:48:25.243Z,10.43
2022-07-25T06:50:52.984Z,9.88
2022-07-25T06:53:22.063Z,9.98
2022-07-25T06:55:50.163Z,11.40
2022-07-25T06:58:17.850Z,10.43
2022-07-25T07:00:51.221Z,10.10
2022-07-25T07:03:19.115Z,10.10
2022-07-25T07:05:46.848Z,10.27
2022-07-25T07:08:14.644Z,9.95
2022-07-25T07:10:43.733Z,10.90
2022-07-25T07:13:12.909Z,10.25
2022-07-25T07:15:45.843Z,11.27
2022-07-25T07:18:13.869Z,10.75
2022-07-25T07:20:41.554Z,9.48
2022-07-25T07:23:09.554Z,10.32
2022-07-25T07:25:37.940Z,11.18
2022-07-25T07:28:07.523Z,10.23
2022-07-25T07:31:05.647Z,9.98
2022-07-25T07:33:23.026Z,10.82
2022-07-25T07:35:50.778Z,10.57
2022-07-25T07:38:18.973Z,11.23
2022-07-25T07:40:46.627Z,10.27
2022-07-25T07:43:15.753Z,9.60
2022-07-25T07:45:44.030Z,9.90
2022-07-25T07:48:11.818Z,10.70
2022-07-25T07:50:40.184Z,10.95
2022-07-25T07:53:08.035Z,11.48
2022-07-25T07:55:48.868Z,10.48
2022-07-25T07:58:19.534Z,10.52
2022-07-25T08:00:49.045Z,10.00
2022-07-25T08:03:19.423Z,10.80
2022-07-25T08:05:51.606Z,10.05
2022-07-25T08:08:19.707Z,10.32
2022-07-25T08:10:49.224Z,9.88
2022-07-25T08:13:19.946Z,10.52
2022-07-25T08:15:49.381Z,10.15
2022-07-25T08:18:18.289Z,9.70
2022-07-25T08:20:46.383Z,9.95
2022-07-25T08:23:14.673Z,9.68
2022-07-25T08:25:43.155Z,10.07
2022-07-25T08:28:11.323Z,10.20
2022-07-25T08:30:42.118Z,9.32
2022-07-25T08:33:13.551Z,9.07
2022-07-25T08:35:42.090Z,9.48
2022-07-25T08:38:11.527Z,9.68
2022-07-25T08:40:39.612Z,10.45
2022-07-25T08:43:07.432Z,10.27
2022-07-25T08:45:35.193Z,9.68
2022-07-25T08:48:04.738Z,10.15
2022-07-25T08:50:32.422Z,9.85
2022-07-25T08:53:30.423Z,10.40
2022-07-25T08:55:50.209Z,9.88
2022-07-25T08:58:19.271Z,9.57
2022-07-25T09:00:47.184Z,9.95
2022-07-25T09:03:16.534Z,11.23
2022-07-25T09:05:46.087Z,11.55
2022-07-25T09:08:16.383Z,10.82
2022-07-25T09:10:48.001Z,10.77
2022-07-25T09:13:16.624Z,11.02
2022-07-25T09:15:47.316Z,10.07
2022-07-25T09:18:17.864Z,10.00
2022-07-25T09:20:47.978Z,11.23
2022-07-25T09:23:28.389Z,10.50
2022-07-25T09:26:03.388Z,11.15
2022-07-25T09:28:31.278Z,11.00
2022-07-25T09:31:00.619Z,8.98
2022-07-25T09:33:30.742Z,9.88
2022-07-25T09:35:59.008Z,10.60
2022-07-25T09:38:26.929Z,9.65
2022-07-25T09:40:57.102Z,9.07
2022-07-25T09:43:25.183Z,9.63
2022-07-25T09:45:53.914Z,9.70
2022-07-25T09:48:21.904Z,9.88
2022-07-25T09:50:51.884Z,9.20
2022-07-25T09:53:21.226Z,8.73
2022-07-25T09:55:49.009Z,8.98
2022-07-25T09:58:17.159Z,8.75
2022-07-25T10:00:46.181Z,8.82
2022-07-25T10:03:19.948Z,9.82
2022-07-25T10:06:03.501Z,8.60
2022-07-25T10:08:37.735Z,9.00
2022-07-25T10:11:06.742Z,9.10
2022-07-25T10:13:38.292Z,8.88
2022-07-25T10:16:16.385Z,7.85
2022-07-25T10:18:50.582Z,8.02
2022-07-25T10:21:26.922Z,8.52
2022-07-25T10:24:00.798Z,7.93
2022-07-25T10:26:28.902Z,8.43
2022-07-25T10:28:57.333Z,7.97
2022-07-25T10:31:27.870Z,7.95
2022-07-25T10:33:57.971Z,7.32
2022-07-25T10:36:30.201Z,8.05
2022-07-25T10:39:01.699Z,7.90
2022-07-25T10:41:30.118Z,8.18
2022-07-25T10:44:01.887Z,8.02
2022-07-25T10:46:30.946Z,8.30
2022-07-25T10:49:01.050Z,7.50
2022-07-25T10:51:32.682Z,6.88
2022-07-25T10:54:00.653Z,9.05
2022-07-25T10:56:30.024Z,7.95
2022-07-25T10:58:59.844Z,7.40
2022-07-25T11:01:30.062Z,7.70
2022-07-25T11:04:00.624Z,7.45
2022-07-25T11:06:35.199Z,7.60
2022-07-25T11:09:04.105Z,8.13
2022-07-25T11:11:40.451Z,7.25
2022-07-25T11:14:16.587Z,7.80
2022-07-25T11:16:45.077Z,7.40
2022-07-25T11:19:20.573Z,7.80
2022-07-25T11:21:52.116Z,7.28
2022-07-25T11:24:20.101Z,7.35
2022-07-25T11:26:49.951Z,7.50
2022-07-25T11:29:23.816Z,6.93
2022-07-25T11:31:56.584Z,7.47
2022-07-25T11:34:26.357Z,7.35
2022-07-25T11:36:57.367Z,7.05
2022-07-25T11:39:27.145Z,6.97
2022-07-25T11:42:03.204Z,5.53
2022-07-25T11:44:32.812Z,5.28
2022-07-25T11:47:00.737Z,5.50
2022-07-25T11:49:28.433Z,5.68
2022-07-25T11:51:57.565Z,5.20
2022-07-25T11:54:25.269Z,6.03
2022-07-25T11:56:53.103Z,4.97
2022-07-25T11:59:20.870Z,4.85
2022-07-25T12:01:48.822Z,4.60
2022-07-25T12:04:18.801Z,4.82
2022-07-25T12:06:50.270Z,5.05
2022-07-25T12:09:20.443Z,4.70
2022-07-25T12:11:49.323Z,4.90
2022-07-25T12:14:17.880Z,4.80
2022-07-25T12:16:45.752Z,5.20
2022-07-25T12:19:21.070Z,5.18
2022-07-25T12:21:49.145Z,5.85
2022-07-25T12:24:17.037Z,4.68
2022-07-25T12:26:46.144Z,5.10
2022-07-25T12:29:13.846Z,5.45
2022-07-25T12:31:41.645Z,5.72
2022-07-25T12:34:09.343Z,6.03
2022-07-25T12:36:43.709Z,5.90
2022-07-25T12:39:11.946Z,5.95
2022-07-25T12:41:40.041Z,5.88
2022-07-25T12:44:09.146Z,5.93
2022-07-25T12:46:38.317Z,5.90
2022-07-25T12:49:06.345Z,5.65
2022-07-25T12:51:34.344Z,6.45
2022-07-25T12:54:02.151Z,6.28
2022-07-25T12:56:29.920Z,6.43
2022-07-25T12:58:57.667Z,5.75
2022-07-25T13:01:26.747Z,6.30
2022-07-25T13:03:54.455Z,6.72
2022-07-25T13:06:22.349Z,6.00
2022-07-25T13:08:50.141Z,6.50
2022-07-25T13:11:17.870Z,7.00
2022-07-25T13:13:45.594Z,6.75
2022-07-25T13:16:13.345Z,6.72
2022-07-25T13:18:44.291Z,6.28
2022-07-25T13:21:12.100Z,6.22
2022-07-25T13:23:40.320Z,6.05
2022-07-25T13:26:08.760Z,6.43
2022-07-25T13:28:36.527Z,6.00
2022-07-25T13:31:06.913Z,5.90
2022-07-25T13:33:34.663Z,5.55
2022-07-25T13:36:03.810Z,5.75
2022-07-25T13:38:31.539Z,6.38
2022-07-25T13:40:59.298Z,6.00
2022-07-25T13:43:27.108Z,5.78
2022-07-25T13:45:55.141Z,6.18
2022-07-25T13:48:31.521Z,6.45
2022-07-25T13:51:00.110Z,6.68
2022-07-25T13:53:30.468Z,6.70
2022-07-25T13:55:59.145Z,6.72
2022-07-25T13:58:27.100Z,6.55
2022-07-25T14:00:55.231Z,6.25
2022-07-25T14:03:23.087Z,6.50
2022-07-25T14:05:51.049Z,5.65
2022-07-25T14:08:18.916Z,6.10
2022-07-25T14:10:48.031Z,6.03
2022-07-25T14:13:16.026Z,5.53
2022-07-25T14:15:43.847Z,6.47
2022-07-25T14:18:11.768Z,6.30
2022-07-25T14:20:39.589Z,5.70
2022-07-25T14:23:07.318Z,5.93
2022-07-25T14:25:35.261Z,6.13
2022-07-25T14:28:04.582Z,5.68
2022-07-25T14:30:32.330Z,6.15
2022-07-25T14:33:00.032Z,6.57
2022-07-25T14:35:32.330Z,7.53
2022-07-25T14:38:00.665Z,7.07
2022-07-25T14:40:28.457Z,7.00
2022-07-25T14:42:56.210Z,6.55
2022-07-25T14:45:25.253Z,6.97
2022-07-25T14:47:53.950Z,5.88
2022-07-25T14:50:21.961Z,6.95
2022-07-25T14:52:49.709Z,7.20
2022-07-25T14:55:18.722Z,6.10
2022-07-25T14:57:46.440Z,6.22
2022-07-25T15:00:15.188Z,7.50
2022-07-25T15:02:44.431Z,7.55
2022-07-25T15:05:12.174Z,7.10
2022-07-25T15:07:40.067Z,7.43
2022-07-25T15:10:08.413Z,7.03
2022-07-25T15:12:36.206Z,7.25
2022-07-25T15:15:04.214Z,6.97
2022-07-25T15:17:32.264Z,6.82
2022-07-25T15:20:01.449Z,7.45
2022-07-25T15:22:29.385Z,7.65
2022-07-25T15:25:27.583Z,7.13
2022-07-25T15:27:45.326Z,6.88
2022-07-25T15:30:13.698Z,7.07
2022-07-25T15:32:41.617Z,6.60
2022-07-25T15:35:10.778Z,6.40
2022-07-25T15:37:38.517Z,6.80
2022-07-25T15:40:07.495Z,6.60
2022-07-25T15:42:35.201Z,7.47
2022-07-25T15:45:32.078Z,6.28
2022-07-25T15:47:51.338Z,7.20
2022-07-25T15:50:21.422Z,7.53
2022-07-25T15:52:49.559Z,6.30
2022-07-25T15:55:17.290Z,6.78
2022-07-25T15:57:45.087Z,6.35
2022-07-25T16:00:16.226Z,6.53
2022-07-25T16:02:44.951Z,6.40
2022-07-25T16:05:12.652Z,5.93
2022-07-25T16:07:42.098Z,6.32
2022-07-25T16:10:11.143Z,6.10
2022-07-25T16:12:39.328Z,5.93
2022-07-25T16:15:08.374Z,5.85
2022-07-25T16:17:37.826Z,5.60
2022-07-25T16:20:06.617Z,5.28
2022-07-25T16:22:34.497Z,5.90
2022-07-25T16:25:04.175Z,5.13
2022-07-25T16:27:32.324Z,4.85
2022-07-25T16:30:00.850Z,4.85
2022-07-25T16:32:28.662Z,5.13
2022-07-25T16:34:56.377Z,5.38
2022-07-25T16:37:24.153Z,4.47
2022-07-25T16:39:51.902Z,4.45
2022-07-25T16:42:20.977Z,4.68
2022-07-25T16:44:49.318Z,4.65
2022-07-25T16:47:17.043Z,4.20
2022-07-25T16:49:44.770Z,4.45
2022-07-25T16:52:12.545Z,4.45
2022-07-25T16:54:42.043Z,3.70
2022-07-25T16:57:09.893Z,4.38
2022-07-25T16:59:38.941Z,3.67
2022-07-25T17:02:06.755Z,3.60
2022-07-25T17:04:35.124Z,3.85
2022-07-25T17:07:02.923Z,3.10
2022-07-25T17:09:30.697Z,3.38
2022-07-25T17:11:58.455Z,3.05
2022-07-25T17:14:30.255Z,3.05
2022-07-25T17:16:59.797Z,2.83
2022-07-25T17:19:27.491Z,3.00
2022-07-25T17:21:55.226Z,3.00
2022-07-25T17:24:23.051Z,3.42
2022-07-25T17:26:50.790Z,2.67
2022-07-25T17:29:18.670Z,3.17
2022-07-25T17:31:46.438Z,3.83
2022-07-25T17:34:15.553Z,4.28
2022-07-25T17:36:43.505Z,2.85
2022-07-25T17:39:11.479Z,3.20
2022-07-25T17:41:39.189Z,3.03
2022-07-25T17:44:11.637Z,2.40
2022-07-25T17:46:39.864Z,2.33
2022-07-25T17:49:07.627Z,3.05
2022-07-25T17:51:36.755Z,2.63
2022-07-25T17:54:04.752Z,2.35
2022-07-25T17:56:33.431Z,2.35
2022-07-25T17:59:01.140Z,1.90
2022-07-25T18:01:29.120Z,2.10
2022-07-25T18:03:57.236Z,1.92
2022-07-25T18:06:29.584Z,1.90
2022-07-25T18:08:59.092Z,2.08
2022-07-25T18:11:27.693Z,1.95
2022-07-25T18:13:55.384Z,2.08
2022-07-25T18:16:23.814Z,2.08
2022-07-25T18:18:51.523Z,2.60
2022-07-25T18:21:19.189Z,1.95
2022-07-25T18:23:47.002Z,2.45
2022-07-25T18:26:16.032Z,2.63
2022-07-25T18:28:43.884Z,2.20
2022-07-25T18:31:11.852Z,2.28
2022-07-25T18:33:39.601Z,1.95
2022-07-25T18:36:08.062Z,2.28
2022-07-25T18:38:36.485Z,2.58
2022-07-25T18:41:28.198Z,2.08
2022-07-25T18:43:54.432Z,1.80
2022-07-25T18:46:22.387Z,2.50
2022-07-25T18:48:51.287Z,2.00
2022-07-25T18:51:19.400Z,2.00
2022-07-25T18:53:48.535Z,1.75
2022-07-25T18:56:17.047Z,1.67
2022-07-25T18:58:45.174Z,1.58
2022-07-25T19:01:14.300Z,1.73
2022-07-25T19:03:42.127Z,1.65
2022-07-25T19:06:10.946Z,1.60
2022-07-25T19:08:38.944Z,1.52
2022-07-25T19:11:08.445Z,1.20
2022-07-25T19:13:49.557Z,1.65
2022-07-25T19:16:20.533Z,1.35
2022-07-25T19:18:49.159Z,1.30
2022-07-25T19:21:16.864Z,1.60
2022-07-25T19:23:50.548Z,1.30
2022-07-25T19:26:19.424Z,1.13
2022-07-25T19:28:47.273Z,1.20
2022-07-25T19:31:15.285Z,1.10
2022-07-25T19:33:45.896Z,1.50
2022-07-25T19:36:13.951Z,1.40
2022-07-25T19:38:41.708Z,1.45
2022-07-25T19:41:09.692Z,1.20
2022-07-25T19:43:37.460Z,1.35
2022-07-25T19:46:05.281Z,1.30
2022-07-25T19:48:40.675Z,1.73
2022-07-25T19:51:09.814Z,1.50
2022-07-25T19:53:40.624Z,1.50
2022-07-25T19:56:09.243Z,1.60
2022-07-25T19:58:39.083Z,1.50
2022-07-25T20:01:11.398Z,1.55
2022-07-25T20:03:39.176Z,1.30
2022-07-25T20:06:08.431Z,1.08
2022-07-25T20:08:39.323Z,1.20
2022-07-25T20:11:07.477Z,1.20
2022-07-25T20:13:36.077Z,1.20
2022-07-25T20:16:04.641Z,1.33
2022-07-25T20:18:32.692Z,3.35
2022-07-25T20:21:00.648Z,4.45
2022-07-25T20:23:28.599Z,1.70
2022-07-25T20:25:58.072Z,2.00
2022-07-25T20:28:25.812Z,1.83
2022-07-25T20:30:54.054Z,1.80
2022-07-25T20:33:23.760Z,1.75
2022-07-25T20:36:09.764Z,1.42
2022-07-25T20:42:19.138Z,1.38
2022-07-25T20:44:47.272Z,1.48
2022-07-25T20:47:16.029Z,1.75
2022-07-25T20:49:44.236Z,1.95
2022-07-25T20:52:12.097Z,1.63
2022-07-25T20:54:42.101Z,1.50
2022-07-25T20:57:11.489Z,1.05
2022-07-25T20:59:40.837Z,1.30
2022-07-25T21:02:08.581Z,1.15
2022-07-25T21:04:36.367Z,1.13
2022-07-25T21:07:05.225Z,1.13
2022-07-25T21:09:33.171Z,1.58
2022-07-25T21:12:02.383Z,1.33
2022-07-25T21:14:30.076Z,1.10
2022-07-25T21:16:59.131Z,1.50
2022-07-25T21:19:26.842Z,1.45
2022-07-25T21:21:54.624Z,1.10
2022-07-25T21:24:22.321Z,1.38
2022-07-25T21:26:51.275Z,1.00
2022-07-25T21:29:19.260Z,1.33
2022-07-25T21:31:47.099Z,1.33
2022-07-25T21:34:16.357Z,1.83
2022-07-25T21:36:44.065Z,1.30
2022-07-25T21:39:11.821Z,1.40
2022-07-25T21:41:39.607Z,1.60
2022-07-25T21:44:07.310Z,2.00
2022-07-25T21:46:35.011Z,2.30
2022-07-25T21:49:22.940Z,1.60
2022-07-25T21:52:13.324Z,1.40
2022-07-25T21:54:42.075Z,1.38
2022-07-25T21:57:13.433Z,1.10
2022-07-25T21:59:42.082Z,2.45
2022-07-25T22:02:09.781Z,1.60
2022-07-25T22:04:37.583Z,1.35
2022-07-25T22:07:05.877Z,1.98
2022-07-25T22:09:34.912Z,2.00
2022-07-25T22:12:02.795Z,1.58
2022-07-25T22:14:30.607Z,1.30
2022-07-25T22:16:58.435Z,1.25
2022-07-25T22:19:26.392Z,1.27
2022-07-25T22:21:54.171Z,1.63
2022-07-25T22:24:21.955Z,1.25
2022-07-25T22:26:51.051Z,1.70
2022-07-25T22:29:18.783Z,1.60
2022-07-25T22:31:46.569Z,1.45
2022-07-25T22:34:14.312Z,1.40
2022-07-25T22:36:42.208Z,1.40
2022-07-25T22:39:10.911Z,1.83
2022-07-25T22:41:38.976Z,1.77
2022-07-25T22:44:08.441Z,1.40
2022-07-25T22:46:36.163Z,1.27
2022-07-25T22:49:04.153Z,1.30
2022-07-25T22:51:32.103Z,1.40
2022-07-25T22:54:00.078Z,1.30
2022-07-25T22:56:29.996Z,1.52
2022-07-25T22:58:58.203Z,1.15
2022-07-25T23:01:27.429Z,1.52
2022-07-25T23:03:55.224Z,1.40
2022-07-25T23:06:23.101Z,1.10
2022-07-25T23:08:51.504Z,1.45
2022-07-25T23:11:19.676Z,1.52
2022-07-25T23:13:47.369Z,1.42
2022-07-25T23:16:15.209Z,1.63
2022-07-25T23:18:44.276Z,1.58
2022-07-25T23:21:12.224Z,1.63
2022-07-25T23:23:39.884Z,1.90
2022-07-25T23:26:07.519Z,1.67
2022-07-25T23:28:35.270Z,1.40
2022-07-25T23:31:03.011Z,1.65
2022-07-25T23:33:30.881Z,1.40
2022-07-25T23:36:00.058Z,1.48
2022-07-25T23:38:29.411Z,1.30
2022-07-25T23:40:57.147Z,1.40
2022-07-25T23:43:37.526Z,1.50
2022-07-25T23:46:12.841Z,1.20
2022-07-25T23:48:41.194Z,1.40
2022-07-25T23:51:10.432Z,1.50
2022-07-25T23:53:38.376Z,1.38
2022-07-25T23:56:06.593Z,1.13
2022-07-25T23:58:34.356Z,1.23
